createdAt,value
2022-11-26T00:02:25.961Z,3.50
2022-11-26T00:04:56.109Z,3.60
2022-11-26T00:07:27.251Z,3.50
2022-11-26T00:09:59.547Z,3.50
2022-11-26T00:12:36.461Z,3.50
2022-11-26T00:15:17.189Z,3.60
2022-11-26T00:17:45.908Z,3.40
2022-11-26T00:20:15.244Z,3.40
2022-11-26T00:22:46.900Z,3.30
2022-11-26T00:25:19.553Z,3.20
2022-11-26T00:27:48.455Z,3.20
2022-11-26T00:30:22.453Z,3.20
2022-11-26T00:32:51.093Z,3.10
2022-11-26T00:35:20.327Z,3.10
2022-11-26T00:37:52.541Z,3.00
2022-11-26T00:40:27.458Z,3.00
2022-11-26T00:43:01.409Z,3.00
2022-11-26T00:45:32.310Z,2.90
2022-11-26T00:48:02.909Z,2.90
2022-11-26T00:50:37.823Z,2.80
2022-11-26T00:53:07.381Z,2.90
2022-11-26T00:55:39.792Z,2.90
2022-11-26T00:58:15.453Z,2.80
2022-11-26T01:00:44.046Z,2.80
2022-11-26T01:03:12.625Z,2.80
2022-11-26T01:05:41.141Z,2.80
2022-11-26T01:08:20.769Z,2.80
2022-11-26T01:10:51.028Z,2.70
2022-11-26T01:13:20.261Z,2.70
2022-11-26T01:15:49.160Z,2.70
2022-11-26T01:18:21.415Z,2.70
2022-11-26T01:20:50.321Z,2.70
2022-11-26T01:23:20.851Z,2.70
2022-11-26T01:25:50.945Z,2.60
2022-11-26T01:28:20.749Z,2.60
2022-11-26T01:30:49.269Z,2.50
2022-11-26T01:33:18.034Z,2.50
2022-11-26T01:35:46.772Z,2.50
2022-11-26T01:38:16.302Z,2.40
2022-11-26T01:41:11.193Z,2.40
2022-11-26T01:43:43.416Z,2.40
2022-11-26T01:46:17.071Z,2.40
2022-11-26T01:48:46.399Z,2.40
2022-11-26T01:51:18.674Z,2.50
2022-11-26T01:53:50.597Z,2.40
2022-11-26T01:56:32.073Z,2.50
2022-11-26T01:59:07.909Z,2.50
2022-11-26T02:01:36.797Z,2.50
2022-11-26T02:04:15.064Z,2.50
2022-11-26T02:06:44.934Z,2.60
2022-11-26T02:09:14.352Z,2.60
2022-11-26T02:11:44.505Z,2.70
2022-11-26T02:14:17.943Z,2.70
2022-11-26T02:17:04.937Z,2.70
2022-11-26T02:20:05.589Z,2.80
2022-11-26T02:22:59.567Z,2.80
2022-11-26T02:25:46.919Z,2.80
2022-11-26T02:28:31.574Z,2.90
2022-11-26T02:31:07.966Z,2.90
2022-11-26T02:33:44.608Z,3.00
2022-11-26T02:36:17.001Z,3.00
2022-11-26T02:38:47.826Z,3.00
2022-11-26T02:41:16.346Z,3.00
2022-11-26T02:43:45.126Z,3.00
2022-11-26T02:46:19.095Z,3.00
2022-11-26T02:48:51.459Z,3.00
2022-11-26T02:51:23.928Z,3.10
2022-11-26T02:53:53.619Z,3.10
2022-11-26T02:56:24.819Z,3.10
2022-11-26T02:58:55.650Z,3.10
2022-11-26T03:01:31.991Z,3.10
2022-11-26T03:04:03.989Z,3.10
2022-11-26T03:06:35.615Z,3.10
2022-11-26T03:09:04.139Z,3.10
2022-11-26T03:11:32.780Z,3.20
2022-11-26T03:14:01.407Z,3.20
2022-11-26T03:16:31.348Z,3.20
2022-11-26T03:18:59.885Z,3.20
2022-11-26T03:21:28.340Z,3.20
2022-11-26T03:23:56.839Z,3.20
2022-11-26T03:26:25.579Z,3.20
2022-11-26T03:28:54.188Z,3.20
2022-11-26T03:31:22.753Z,3.20
2022-11-26T03:33:52.705Z,3.20
2022-11-26T03:36:21.226Z,3.20
2022-11-26T03:38:49.683Z,3.20
2022-11-26T03:41:18.198Z,3.30
2022-11-26T03:43:46.673Z,3.30
2022-11-26T03:46:15.218Z,3.30
2022-11-26T03:48:43.789Z,3.30
2022-11-26T03:51:13.629Z,3.30
2022-11-26T03:53:42.139Z,3.30
2022-11-26T03:56:10.902Z,3.30
2022-11-26T03:58:39.389Z,3.40
2022-11-26T04:01:10.042Z,3.40
2022-11-26T04:03:38.577Z,3.40
2022-11-26T04:06:07.947Z,3.50
2022-11-26T04:08:37.927Z,3.40
2022-11-26T04:11:06.607Z,3.50
2022-11-26T04:13:35.470Z,3.50
2022-11-26T04:16:04.085Z,3.50
2022-11-26T04:18:32.596Z,3.50
2022-11-26T04:21:01.128Z,3.60
2022-11-26T04:23:29.719Z,3.60
2022-11-26T04:25:59.570Z,3.60
2022-11-26T04:28:28.049Z,3.60
2022-11-26T04:30:56.566Z,3.60
2022-11-26T04:33:27.032Z,3.60
2022-11-26T04:35:55.781Z,3.60
2022-11-26T04:38:25.890Z,3.70
2022-11-26T04:40:54.668Z,3.80
2022-11-26T04:43:24.643Z,3.80
2022-11-26T04:45:53.167Z,3.80
2022-11-26T04:48:21.844Z,4.00
2022-11-26T04:50:51.113Z,4.00
2022-11-26T04:53:22.094Z,4.00
2022-11-26T04:55:51.667Z,4.10
2022-11-26T04:58:21.405Z,4.10
2022-11-26T05:00:51.618Z,4.00
2022-11-26T05:03:20.285Z,4.00
2022-11-26T05:05:48.846Z,4.00
2022-11-26T05:08:17.284Z,4.00
2022-11-26T05:10:45.934Z,4.10
2022-11-26T05:13:14.397Z,4.00
2022-11-26T05:15:42.887Z,4.10
2022-11-26T05:18:13.818Z,4.10
2022-11-26T05:20:42.338Z,4.10
2022-11-26T05:23:10.875Z,4.10
2022-11-26T05:25:39.359Z,4.10
2022-11-26T05:28:07.870Z,4.10
2022-11-26T05:30:36.736Z,4.10
2022-11-26T05:33:05.256Z,4.20
2022-11-26T05:35:36.641Z,4.20
2022-11-26T05:38:05.138Z,4.20
2022-11-26T05:40:34.024Z,4.20
2022-11-26T05:43:02.584Z,4.30
2022-11-26T05:45:31.119Z,4.30
2022-11-26T05:47:59.723Z,4.30
2022-11-26T05:50:28.264Z,4.30
2022-11-26T05:52:58.046Z,4.30
2022-11-26T05:55:26.729Z,4.30
2022-11-26T05:57:55.235Z,4.30
2022-11-26T06:00:24.292Z,4.30
2022-11-26T06:02:52.946Z,4.40
2022-11-26T06:05:22.063Z,4.40
2022-11-26T06:07:51.017Z,4.40
2022-11-26T06:10:21.213Z,4.40
2022-11-26T06:12:49.648Z,4.40
2022-11-26T06:15:18.360Z,4.40
2022-11-26T06:17:46.859Z,4.50
2022-11-26T06:20:15.747Z,4.60
2022-11-26T06:22:45.056Z,4.70
2022-11-26T06:25:15.210Z,4.80
2022-11-26T06:27:45.345Z,4.80
2022-11-26T06:30:14.779Z,4.80
2022-11-26T06:32:43.302Z,4.90
2022-11-26T06:35:12.127Z,5.00
2022-11-26T06:37:40.648Z,5.00
2022-11-26T06:40:11.913Z,5.10
2022-11-26T06:42:41.101Z,5.10
2022-11-26T06:45:12.335Z,5.10
2022-11-26T06:47:40.761Z,5.10
2022-11-26T06:50:11.018Z,5.20
2022-11-26T06:52:39.573Z,5.20
2022-11-26T06:55:11.030Z,5.20
2022-11-26T06:57:39.880Z,5.30
2022-11-26T07:00:11.365Z,5.40
2022-11-26T07:02:40.029Z,5.40
2022-11-26T07:05:09.146Z,5.50
2022-11-26T07:07:39.051Z,5.50
2022-11-26T07:10:08.905Z,5.50
2022-11-26T07:12:37.384Z,5.50
2022-11-26T07:15:06.703Z,5.60
2022-11-26T07:17:36.537Z,5.70
2022-11-26T07:20:05.628Z,5.70
2022-11-26T07:22:35.748Z,5.70
2022-11-26T07:25:09.342Z,5.70
2022-11-26T07:27:42.050Z,5.80
2022-11-26T07:30:11.489Z,5.80
2022-11-26T07:32:41.446Z,5.90
2022-11-26T07:35:18.062Z,5.80
2022-11-26T07:37:46.707Z,5.90
2022-11-26T07:40:16.087Z,6.00
2022-11-26T07:42:47.072Z,6.00
2022-11-26T07:45:17.826Z,6.00
2022-11-26T07:47:47.753Z,6.10
2022-11-26T07:50:16.383Z,6.00
2022-11-26T07:52:44.932Z,6.10
2022-11-26T07:55:13.488Z,6.20
2022-11-26T07:57:41.926Z,6.30
2022-11-26T08:00:11.573Z,6.20
2022-11-26T08:02:43.002Z,6.20
2022-11-26T08:05:13.009Z,6.20
2022-11-26T08:07:41.688Z,6.20
2022-11-26T08:10:12.730Z,6.20
2022-11-26T08:12:41.502Z,6.20
2022-11-26T08:15:11.254Z,6.20
2022-11-26T08:17:39.726Z,6.20
2022-11-26T08:20:09.337Z,6.30
2022-11-26T08:22:39.224Z,6.30
2022-11-26T08:25:09.269Z,6.30
2022-11-26T08:27:37.764Z,6.30
2022-11-26T08:30:08.038Z,6.30
2022-11-26T08:32:36.887Z,6.40
2022-11-26T08:35:06.519Z,6.40
2022-11-26T08:37:35.045Z,6.40
2022-11-26T08:40:05.593Z,6.50
2022-11-26T08:42:34.079Z,6.50
2022-11-26T08:45:02.629Z,6.50
2022-11-26T08:47:32.342Z,6.50
2022-11-26T08:50:00.851Z,6.50
2022-11-26T08:52:29.377Z,6.50
2022-11-26T08:54:57.857Z,6.50
2022-11-26T08:57:27.744Z,6.50
2022-11-26T08:59:56.261Z,6.60
2022-11-26T09:02:25.091Z,6.50
2022-11-26T09:04:53.538Z,6.50
2022-11-26T09:07:22.107Z,6.60
2022-11-26T09:09:50.601Z,6.60
2022-11-26T09:12:19.289Z,6.70
2022-11-26T09:14:49.201Z,6.80
2022-11-26T09:17:17.672Z,6.90
2022-11-26T09:19:46.186Z,6.90
2022-11-26T09:22:14.649Z,6.90
2022-11-26T09:24:43.081Z,6.90
2022-11-26T09:27:12.309Z,7.00
2022-11-26T09:29:40.854Z,7.00
2022-11-26T09:32:30.927Z,7.10
2022-11-26T09:34:59.298Z,7.10
2022-11-26T09:37:27.864Z,7.10
2022-11-26T09:39:56.341Z,7.10
2022-11-26T09:42:37.307Z,7.10
2022-11-26T09:45:13.428Z,7.10
2022-11-26T09:47:45.703Z,7.10
2022-11-26T09:50:24.113Z,7.10
2022-11-26T09:52:57.921Z,7.10
2022-11-26T09:55:31.011Z,7.10
2022-11-26T09:58:07.520Z,7.10
2022-11-26T10:00:40.293Z,7.10
2022-11-26T10:03:15.829Z,7.10
2022-11-26T10:05:49.185Z,7.00
2022-11-26T10:08:55.694Z,7.00
2022-11-26T10:11:32.424Z,7.10
2022-11-26T10:14:11.241Z,7.10
2022-11-26T10:16:46.151Z,7.20
2022-11-26T10:19:24.441Z,7.20
2022-11-26T10:21:59.038Z,7.20
2022-11-26T10:24:31.318Z,7.20
2022-11-26T10:27:02.980Z,7.30
2022-11-26T10:29:39.711Z,7.30
2022-11-26T10:32:25.794Z,7.40
2022-11-26T10:34:57.609Z,7.40
2022-11-26T10:37:28.045Z,7.40
2022-11-26T10:40:02.130Z,7.40
2022-11-26T10:42:42.911Z,7.50
2022-11-26T10:45:19.622Z,7.40
2022-11-26T10:47:48.197Z,7.40
2022-11-26T10:50:46.615Z,7.50
2022-11-26T10:53:22.307Z,7.50
2022-11-26T10:55:51.953Z,7.60
2022-11-26T10:58:23.960Z,7.60
2022-11-26T11:00:59.636Z,7.60
2022-11-26T11:04:06.088Z,7.60
2022-11-26T11:06:41.977Z,7.60
2022-11-26T11:09:29.641Z,7.50
2022-11-26T11:12:22.728Z,7.60
2022-11-26T11:14:52.669Z,7.60
2022-11-26T11:17:29.732Z,7.60
2022-11-26T11:19:59.539Z,7.50
2022-11-26T11:22:29.766Z,7.60
2022-11-26T11:25:00.183Z,7.50
2022-11-26T11:27:38.346Z,7.50
2022-11-26T11:30:08.920Z,7.50
2022-11-26T11:32:39.833Z,7.50
2022-11-26T11:35:23.174Z,7.50
2022-11-26T11:37:54.868Z,7.50
2022-11-26T11:40:27.735Z,7.60
2022-11-26T11:42:59.322Z,7.60
2022-11-26T11:45:33.664Z,7.60
2022-11-26T11:48:11.751Z,7.60
2022-11-26T11:50:45.877Z,7.60
2022-11-26T11:53:30.096Z,7.70
2022-11-26T11:56:18.553Z,7.70
2022-11-26T11:59:19.737Z,7.80
2022-11-26T12:02:05.098Z,7.80
2022-11-26T12:05:04.770Z,7.80
2022-11-26T12:07:39.639Z,7.80
2022-11-26T12:10:17.614Z,7.80
2022-11-26T12:12:50.852Z,7.90
2022-11-26T12:15:26.304Z,7.80
2022-11-26T12:18:01.675Z,7.90
2022-11-26T12:20:35.717Z,7.80
2022-11-26T12:23:24.330Z,7.80
2022-11-26T12:25:59.878Z,7.70
2022-11-26T12:28:32.433Z,7.60
2022-11-26T12:31:05.904Z,7.60
2022-11-26T12:33:41.672Z,7.50
2022-11-26T12:36:18.952Z,7.50
2022-11-26T12:38:52.702Z,7.40
2022-11-26T12:41:26.533Z,7.40
2022-11-26T12:44:03.859Z,7.30
2022-11-26T12:46:39.821Z,7.30
2022-11-26T12:49:17.750Z,7.20
2022-11-26T12:51:51.273Z,7.30
2022-11-26T12:54:24.812Z,7.10
2022-11-26T12:57:01.263Z,7.10
2022-11-26T12:59:34.327Z,7.10
2022-11-26T13:02:18.967Z,7.10
2022-11-26T13:04:47.674Z,7.00
2022-11-26T13:07:30.921Z,7.10
2022-11-26T13:10:12.180Z,7.10
2022-11-26T13:12:51.967Z,7.00
2022-11-26T13:15:27.845Z,7.00
2022-11-26T13:18:00.472Z,7.00
2022-11-26T13:20:59.588Z,6.90
2022-11-26T13:23:44.019Z,6.90
2022-11-26T13:26:43.071Z,6.80
2022-11-26T13:29:34.436Z,6.70
2022-11-26T13:32:31.060Z,6.70
2022-11-26T13:35:14.356Z,6.70
2022-11-26T13:37:54.568Z,6.60
2022-11-26T13:41:07.944Z,6.60
2022-11-26T13:44:09.067Z,6.50
2022-11-26T13:46:42.107Z,6.50
2022-11-26T13:49:15.186Z,6.40
2022-11-26T13:51:49.995Z,6.40
2022-11-26T13:54:22.745Z,6.40
2022-11-26T13:56:59.503Z,6.30
2022-11-26T13:59:28.955Z,6.30
2022-11-26T14:01:58.943Z,6.30
2022-11-26T14:05:01.276Z,6.30
2022-11-26T14:07:31.506Z,6.20
2022-11-26T14:10:02.203Z,6.20
2022-11-26T14:13:10.158Z,6.20
2022-11-26T14:15:59.949Z,6.20
2022-11-26T14:19:01.297Z,6.20
2022-11-26T14:21:31.716Z,6.20
2022-11-26T14:24:01.840Z,6.30
2022-11-26T14:26:34.454Z,6.20
2022-11-26T14:29:13.457Z,6.20
2022-11-26T14:31:49.075Z,6.20
2022-11-26T14:34:24.306Z,6.20
2022-11-26T14:36:56.671Z,6.20
2022-11-26T14:39:25.907Z,6.20
2022-11-26T14:42:00.335Z,6.20
2022-11-26T14:44:32.678Z,6.20
2022-11-26T14:47:09.565Z,6.20
2022-11-26T14:49:40.558Z,6.20
2022-11-26T14:52:21.700Z,6.20
2022-11-26T14:54:53.637Z,6.10
2022-11-26T14:57:27.473Z,6.10
2022-11-26T15:00:00.493Z,6.10
2022-11-26T15:02:30.718Z,6.20
2022-11-26T15:05:01.215Z,6.10
2022-11-26T15:07:32.760Z,6.10
2022-11-26T15:10:02.935Z,6.10
2022-11-26T15:12:32.215Z,6.10
2022-11-26T15:15:02.914Z,6.00
2022-11-26T15:17:33.636Z,6.00
2022-11-26T15:20:05.496Z,6.00
2022-11-26T15:22:39.271Z,6.10
2022-11-26T15:25:17.539Z,6.00
2022-11-26T15:27:54.345Z,6.00
2022-11-26T15:30:25.024Z,5.90
2022-11-26T15:33:04.426Z,5.90
2022-11-26T15:35:34.081Z,5.90
2022-11-26T15:38:07.630Z,5.90
2022-11-26T15:40:47.127Z,5.90
2022-11-26T15:43:24.911Z,5.90
2022-11-26T15:46:17.968Z,5.90
2022-11-26T15:48:52.404Z,5.90
2022-11-26T15:51:30.724Z,5.90
2022-11-26T15:54:04.532Z,5.90
2022-11-26T15:56:37.266Z,5.90
2022-11-26T15:59:13.797Z,5.90
2022-11-26T16:01:46.818Z,5.90
2022-11-26T16:04:40.159Z,5.90
2022-11-26T16:07:10.284Z,5.80
2022-11-26T16:09:40.177Z,5.90
2022-11-26T16:12:30.712Z,5.90
2022-11-26T16:15:19.150Z,5.90
2022-11-26T16:17:49.026Z,5.80
2022-11-26T16:20:21.434Z,5.80
2022-11-26T16:22:54.405Z,5.90
2022-11-26T16:25:26.810Z,5.90
2022-11-26T16:28:06.920Z,5.80
2022-11-26T16:30:36.158Z,5.80
2022-11-26T16:33:05.083Z,5.80
2022-11-26T16:35:49.147Z,5.80
2022-11-26T16:38:21.412Z,5.80
2022-11-26T16:40:51.633Z,5.80
2022-11-26T16:43:20.375Z,5.80
2022-11-26T16:45:50.043Z,5.80
2022-11-26T16:48:25.891Z,5.80
2022-11-26T16:50:56.017Z,5.80
2022-11-26T16:53:25.028Z,5.80
2022-11-26T16:55:55.348Z,5.90
2022-11-26T16:58:28.363Z,6.00
2022-11-26T17:00:58.083Z,5.80
2022-11-26T17:03:28.039Z,5.80
2022-11-26T17:05:59.571Z,5.80
2022-11-26T17:08:29.232Z,5.80
2022-11-26T17:10:59.059Z,5.80
2022-11-26T17:13:29.685Z,5.80
2022-11-26T17:15:58.463Z,5.80
2022-11-26T17:18:27.120Z,5.80
2022-11-26T17:20:55.811Z,5.80
2022-11-26T17:23:24.341Z,5.70
2022-11-26T17:25:54.449Z,5.70
2022-11-26T17:28:24.338Z,5.80
2022-11-26T17:30:52.865Z,5.80
2022-11-26T17:33:21.411Z,5.70
2022-11-26T17:35:49.962Z,5.80
2022-11-26T17:38:20.962Z,5.70
2022-11-26T17:40:49.841Z,5.70
2022-11-26T17:43:18.411Z,5.70
2022-11-26T17:45:48.402Z,5.70
2022-11-26T17:48:16.926Z,5.70
2022-11-26T17:50:45.742Z,5.70
2022-11-26T17:53:14.276Z,5.70
2022-11-26T17:55:42.759Z,5.70
2022-11-26T17:58:12.871Z,5.70
2022-11-26T18:00:41.407Z,5.70
2022-11-26T18:03:11.300Z,5.70
2022-11-26T18:05:42.165Z,5.70
2022-11-26T18:08:11.215Z,5.70
2022-11-26T18:10:41.708Z,5.70
2022-11-26T18:13:10.523Z,5.70
2022-11-26T18:15:39.205Z,5.70
2022-11-26T18:18:08.617Z,5.70
2022-11-26T18:20:39.516Z,5.70
2022-11-26T18:23:09.162Z,5.70
2022-11-26T18:25:37.749Z,5.70
2022-11-26T18:28:06.413Z,5.70
2022-11-26T18:30:35.067Z,5.70
2022-11-26T18:33:03.774Z,5.60
2022-11-26T18:35:32.468Z,5.70
2022-11-26T18:38:03.711Z,5.70
2022-11-26T18:40:32.315Z,5.70
2022-11-26T18:43:00.843Z,5.70
2022-11-26T18:45:29.548Z,5.70
2022-11-26T18:47:58.241Z,5.70
2022-11-26T18:50:26.892Z,5.70
2022-11-26T18:52:58.451Z,5.70
2022-11-26T18:55:28.454Z,5.70
2022-11-26T18:57:57.088Z,5.70
2022-11-26T19:00:25.923Z,5.70
2022-11-26T19:02:54.609Z,5.70
2022-11-26T19:05:23.373Z,5.70
2022-11-26T19:07:51.937Z,5.70
2022-11-26T19:10:41.733Z,5.70
2022-11-26T19:13:10.423Z,5.70
2022-11-26T19:15:42.472Z,5.70
2022-11-26T19:18:11.265Z,5.70
2022-11-26T19:20:48.362Z,5.70
2022-11-26T19:23:17.212Z,5.70
2022-11-26T19:25:47.114Z,5.70
2022-11-26T19:28:15.717Z,5.60
2022-11-26T19:30:44.252Z,5.70
2022-11-26T19:33:12.926Z,5.60
2022-11-26T19:35:41.509Z,5.70
2022-11-26T19:38:10.063Z,5.60
2022-11-26T19:40:40.815Z,5.70
2022-11-26T19:43:10.881Z,5.70
2022-11-26T19:45:39.767Z,5.70
2022-11-26T19:48:08.481Z,5.70
2022-11-26T19:50:37.218Z,5.70
2022-11-26T19:53:05.606Z,5.70
2022-11-26T19:55:34.163Z,5.80
2022-11-26T19:58:02.655Z,5.70
2022-11-26T20:00:32.541Z,5.70
2022-11-26T20:03:01.332Z,5.70
2022-11-26T20:05:30.239Z,5.60
2022-11-26T20:07:58.935Z,5.60
2022-11-26T20:10:27.693Z,5.60
2022-11-26T20:12:56.200Z,5.60
2022-11-26T20:15:47.566Z,5.50
2022-11-26T20:18:16.440Z,5.60
2022-11-26T20:20:45.023Z,5.60
2022-11-26T20:23:14.416Z,5.50
2022-11-26T20:25:43.113Z,5.50
2022-11-26T20:28:11.755Z,5.50
2022-11-26T20:30:40.488Z,5.50
2022-11-26T20:33:10.714Z,5.50
2022-11-26T20:35:40.862Z,5.60
2022-11-26T20:38:09.721Z,5.50
2022-11-26T20:40:40.976Z,5.50
2022-11-26T20:43:09.829Z,5.50
2022-11-26T20:45:38.676Z,5.50
2022-11-26T20:48:07.525Z,5.50
2022-11-26T20:50:38.725Z,5.40
2022-11-26T20:53:07.280Z,5.30
2022-11-26T20:55:35.756Z,5.40
2022-11-26T20:58:04.506Z,5.40
2022-11-26T21:00:33.130Z,5.40
2022-11-26T21:03:01.815Z,5.40
2022-11-26T21:05:30.675Z,5.40
2022-11-26T21:08:00.965Z,5.30
2022-11-26T21:10:30.225Z,5.30
2022-11-26T21:12:58.868Z,5.30
2022-11-26T21:15:28.220Z,5.30
2022-11-26T21:17:56.909Z,5.30
2022-11-26T21:20:25.854Z,5.20
2022-11-26T21:22:54.544Z,5.20
2022-11-26T21:25:24.482Z,5.20
2022-11-26T21:27:55.857Z,5.20
2022-11-26T21:30:24.779Z,5.20
2022-11-26T21:32:53.581Z,5.20
2022-11-26T21:35:22.586Z,5.30
2022-11-26T21:37:51.333Z,5.20
2022-11-26T21:40:20.571Z,5.30
2022-11-26T21:42:50.895Z,5.20
2022-11-26T21:45:19.931Z,5.20
2022-11-26T21:47:51.186Z,5.20
2022-11-26T21:50:20.713Z,5.20
2022-11-26T21:52:49.481Z,5.20
2022-11-26T21:55:18.654Z,5.20
2022-11-26T21:57:47.278Z,5.20
2022-11-26T22:00:18.993Z,5.20
2022-11-26T22:02:49.435Z,5.20
2022-11-26T22:05:18.509Z,5.20
2022-11-26T22:07:48.617Z,5.20
2022-11-26T22:10:17.759Z,5.20
2022-11-26T22:12:46.892Z,5.10
2022-11-26T22:15:15.529Z,5.10
2022-11-26T22:17:44.218Z,5.20
2022-11-26T22:20:15.191Z,5.10
2022-11-26T22:22:44.074Z,5.10
2022-11-26T22:25:12.698Z,5.10
2022-11-26T22:27:41.480Z,5.00
2022-11-26T22:30:10.688Z,5.00
2022-11-26T22:32:39.175Z,5.00
2022-11-26T22:35:08.198Z,5.00
2022-11-26T22:37:38.118Z,4.90
2022-11-26T22:40:08.211Z,4.90
2022-11-26T22:42:37.101Z,4.90
2022-11-26T22:45:06.297Z,4.80
2022-11-26T22:47:35.009Z,4.80
2022-11-26T22:50:03.521Z,4.80
2022-11-26T22:52:32.047Z,4.90
2022-11-26T22:55:01.887Z,4.90
2022-11-26T22:57:31.497Z,4.80
2022-11-26T23:00:00.040Z,4.80
2022-11-26T23:02:28.682Z,4.80
2022-11-26T23:04:57.264Z,4.80
2022-11-26T23:07:25.832Z,4.70
2022-11-26T23:09:54.291Z,4.70
2022-11-26T23:12:24.378Z,4.80
2022-11-26T23:14:52.845Z,4.80
2022-11-26T23:17:21.365Z,4.70
2022-11-26T23:19:49.803Z,4.70
2022-11-26T23:22:18.225Z,4.80
2022-11-26T23:24:46.819Z,4.70
2022-11-26T23:27:15.298Z,4.70
2022-11-26T23:29:45.189Z,4.70
2022-11-26T23:32:13.778Z,4.70
2022-11-26T23:34:42.267Z,4.70
2022-11-26T23:37:10.746Z,4.70
2022-11-26T23:39:39.470Z,4.70
2022-11-26T23:42:08.182Z,4.70
2022-11-26T23:44:36.757Z,4.70
2022-11-26T23:47:06.670Z,4.70
2022-11-26T23:49:35.254Z,4.80
2022-11-26T23:52:03.706Z,4.70
2022-11-26T23:54:32.239Z,4.80
2022-11-26T23:57:00.692Z,4.80
2022-11-26T23:59:29.330Z,4.80
